sensor_id;sensor_type;location;lat;lon;timestamp;pressure;altitude;pressure_sealevel;temperature;humidity
4836;BME280;66719;51.226;6.902;2023-05-25T00:01:37;101678.44;;;9.91;100.00
4836;BME280;66719;51.226;6.902;2023-05-25T00:04:03;101675.81;;;9.85;100.00
4836;BME280;66719;51.226;6.902;2023-05-25T00:06:31;101677.56;;;9.82;100.00
4836;BME280;66719;51.226;6.902;2023-05-25T00:08:58;101670.59;;;9.73;100.00
4836;BME280;66719;51.226;6.902;2023-05-25T00:11:24;101677.53;;;9.77;100.00
4836;BME280;66719;51.226;6.902;2023-05-25T00:13:52;101673.19;;;9.69;100.00
4836;BME280;66719;51.226;6.902;2023-05-25T00:16:19;101674.91;;;9.70;100.00
4836;BME280;66719;51.226;6.902;2023-05-25T00:18:46;101674.06;;;9.74;100.00
4836;BME280;66719;51.226;6.902;2023-05-25T00:21:14;101669.69;;;9.79;100.00
4836;BME280;66719;51.226;6.902;2023-05-25T00:23:41;101664.47;;;9.79;100.00
4836;BME280;66719;51.226;6.902;2023-05-25T00:26:08;101668.81;;;9.78;100.00
4836;BME280;66719;51.226;6.902;2023-05-25T00:28:35;101671.44;;;9.72;100.00
4836;BME280;66719;51.226;6.902;2023-05-25T00:31:01;101672.31;;;9.68;100.00
4836;BME280;66719;51.226;6.902;2023-05-25T00:33:28;101667.97;;;9.66;100.00
4836;BME280;66719;51.226;6.902;2023-05-25T00:35:55;101668.81;;;9.63;100.00
4836;BME280;66719;51.226;6.902;2023-05-25T00:38:23;101668.81;;;9.69;100.00
4836;BME280;66719;51.226;6.902;2023-05-25T00:40:54;101662.72;;;9.59;100.00
4836;BME280;66719;51.226;6.902;2023-05-25T00:43:21;101659.22;;;9.51;100.00
4836;BME280;66719;51.226;6.902;2023-05-25T00:45:49;101661.81;;;9.36;100.00
4836;BME280;66719;51.226;6.902;2023-05-25T00:48:17;101660.06;;;9.30;100.00
4836;BME280;66719;51.226;6.902;2023-05-25T00:50:44;101669.66;;;9.36;100.00
4836;BME280;66719;51.226;6.902;2023-05-25T00:53:12;101659.22;;;9.41;100.00
4836;BME280;66719;51.226;6.902;2023-05-25T00:56:13;101666.19;;;9.39;100.00
4836;BME280;66719;51.226;6.902;2023-05-25T00:58:41;101662.69;;;9.44;100.00
4836;BME280;66719;51.226;6.902;2023-05-25T01:01:11;101663.59;;;9.48;100.00
4836;BME280;66719;51.226;6.902;2023-05-25T01:03:41;101670.56;;;9.52;100.00
4836;BME280;66719;51.226;6.902;2023-05-25T01:06:14;101675.75;;;9.46;100.00
4836;BME280;66719;51.226;6.902;2023-05-25T01:08:46;101674.03;;;9.40;100.00
4836;BME280;66719;51.226;6.902;2023-05-25T01:11:13;101669.63;;;9.27;100.00
4836;BME280;66719;51.226;6.902;2023-05-25T01:13:41;101669.66;;;9.33;100.00
4836;BME280;66719;51.226;6.902;2023-05-25T01:16:08;101661.81;;;9.34;100.00
4836;BME280;66719;51.226;6.902;2023-05-25T01:18:35;101662.69;;;9.30;100.00
4836;BME280;66719;51.226;6.902;2023-05-25T01:26:57;101680.09;;;9.22;100.00
4836;BME280;66719;51.226;6.902;2023-05-25T01:29:28;101671.31;;;9.08;100.00
4836;BME280;66719;51.226;6.902;2023-05-25T01:31:58;101667.81;;;9.01;100.00
4836;BME280;66719;51.226;6.902;2023-05-25T01:34:25;101673.03;;;9.01;100.00
4836;BME280;66719;51.226;6.902;2023-05-25T01:36:52;101676.50;;;8.91;100.00
4836;BME280;66719;51.226;6.902;2023-05-25T01:39:22;101668.63;;;8.85;100.00
4836;BME280;66719;51.226;6.902;2023-05-25T01:41:48;101675.63;;;8.88;100.00
4836;BME280;66719;51.226;6.902;2023-05-25T01:44:15;101675.63;;;8.88;100.00
4836;BME280;66719;51.226;6.902;2023-05-25T01:46:42;101674.75;;;8.92;100.00
4836;BME280;66719;51.226;6.902;2023-05-25T01:49:15;101672.13;;;8.89;100.00
4836;BME280;66719;51.226;6.902;2023-05-25T01:51:48;101675.63;;;8.89;100.00
4836;BME280;66719;51.226;6.902;2023-05-25T01:54:18;101679.06;;;8.81;100.00
4836;BME280;66719;51.226;6.902;2023-05-25T01:56:47;101681.63;;;8.73;100.00
4836;BME280;66719;51.226;6.902;2023-05-25T01:59:18;101682.47;;;8.67;100.00
4836;BME280;66719;51.226;6.902;2023-05-25T02:01:47;101682.47;;;8.67;100.00
4836;BME280;66719;51.226;6.902;2023-05-25T02:04:18;101685.09;;;8.67;100.00
4836;BME280;66719;51.226;6.902;2023-05-25T02:06:47;101679.03;;;8.71;100.00
4836;BME280;66719;51.226;6.902;2023-05-25T02:09:14;101664.25;;;8.72;100.00
4836;BME280;66719;51.226;6.902;2023-05-25T02:11:40;101663.41;;;8.77;100.00
4836;BME280;66719;51.226;6.902;2023-05-25T02:14:07;101670.38;;;8.82;100.00
4836;BME280;66719;51.226;6.902;2023-05-25T02:16:34;101673.84;;;8.77;100.00
4836;BME280;66719;51.226;6.902;2023-05-25T02:19:01;101672.09;;;8.83;100.00
4836;BME280;66719;51.226;6.902;2023-05-25T02:21:27;101669.50;;;8.84;100.00
4836;BME280;66719;51.226;6.902;2023-05-25T02:23:54;101666.00;;;8.84;100.00
4836;BME280;66719;51.226;6.902;2023-05-25T02:26:23;101672.09;;;8.80;100.00
4836;BME280;66719;51.226;6.902;2023-05-25T02:28:50;101662.50;;;8.77;100.00
4836;BME280;66719;51.226;6.902;2023-05-25T02:31:16;101666.84;;;8.75;100.00
4836;BME280;66719;51.226;6.902;2023-05-25T02:33:43;101670.31;;;8.69;100.00
4836;BME280;66719;51.226;6.902;2023-05-25T02:36:10;101682.47;;;8.67;100.00
4836;BME280;66719;51.226;6.902;2023-05-25T02:38:36;101668.59;;;8.71;100.00
4836;BME280;66719;51.226;6.902;2023-05-25T02:41:03;101666.00;;;8.79;100.00
4836;BME280;66719;51.226;6.902;2023-05-25T02:43:29;101673.84;;;8.77;100.00
4836;BME280;66719;51.226;6.902;2023-05-25T02:45:56;101670.31;;;8.75;100.00
4836;BME280;66719;51.226;6.902;2023-05-25T02:48:23;101674.69;;;8.69;100.00
4836;BME280;66719;51.226;6.902;2023-05-25T02:50:49;101680.72;;;8.66;100.00
4836;BME280;66719;51.226;6.902;2023-05-25T02:53:16;101683.34;;;8.65;100.00
4836;BME280;66719;51.226;6.902;2023-05-25T02:55:42;101678.13;;;8.60;100.00
4836;BME280;66719;51.226;6.902;2023-05-25T02:58:10;101689.38;;;8.53;100.00
4836;BME280;66719;51.226;6.902;2023-05-25T03:00:37;101686.72;;;8.50;100.00
4836;BME280;66719;51.226;6.902;2023-05-25T03:03:04;101688.47;;;8.49;100.00
4836;BME280;66719;51.226;6.902;2023-05-25T03:05:31;101688.47;;;8.48;100.00
4836;BME280;66719;51.226;6.902;2023-05-25T03:08:00;101686.72;;;8.48;100.00
4836;BME280;66719;51.226;6.902;2023-05-25T03:10:27;101692.00;;;8.53;100.00
4836;BME280;66719;51.226;6.902;2023-05-25T03:12:53;101700.69;;;8.60;100.00
4836;BME280;66719;51.226;6.902;2023-05-25T03:15:20;101705.09;;;8.61;100.00
4836;BME280;66719;51.226;6.902;2023-05-25T03:17:48;101701.63;;;8.66;100.00
4836;BME280;66719;51.226;6.902;2023-05-25T03:20:15;101707.72;;;8.68;100.00
4836;BME280;66719;51.226;6.902;2023-05-25T03:22:42;101713.84;;;8.70;100.00
4836;BME280;66719;51.226;6.902;2023-05-25T03:25:09;101713.78;;;8.64;100.00
4836;BME280;66719;51.226;6.902;2023-05-25T03:27:38;101713.78;;;8.63;100.00
4836;BME280;66719;51.226;6.902;2023-05-25T03:30:05;101712.88;;;8.58;100.00
4836;BME280;66719;51.226;6.902;2023-05-25T03:32:32;101712.88;;;8.56;100.00
4836;BME280;66719;51.226;6.902;2023-05-25T03:34:59;101713.75;;;8.58;100.00
4836;BME280;66719;51.226;6.902;2023-05-25T03:37:26;101712.06;;;8.60;100.00
4836;BME280;66719;51.226;6.902;2023-05-25T03:39:52;101710.31;;;8.64;100.00
4836;BME280;66719;51.226;6.902;2023-05-25T03:42:18;101708.56;;;8.64;100.00
4836;BME280;66719;51.226;6.902;2023-05-25T03:44:45;101711.22;;;8.69;100.00
4836;BME280;66719;51.226;6.902;2023-05-25T03:47:12;101708.56;;;8.64;100.00
4836;BME280;66719;51.226;6.902;2023-05-25T03:49:38;101712.91;;;8.62;100.00
4836;BME280;66719;51.226;6.902;2023-05-25T03:52:05;101710.28;;;8.59;100.00
4836;BME280;66719;51.226;6.902;2023-05-25T03:54:31;101721.59;;;8.57;100.00
4836;BME280;66719;51.226;6.902;2023-05-25T03:56:58;101731.13;;;8.53;100.00
4836;BME280;66719;51.226;6.902;2023-05-25T03:59:25;101720.66;;;8.50;100.00
4836;BME280;66719;51.226;6.902;2023-05-25T04:01:51;101726.75;;;8.50;100.00
4836;BME280;66719;51.226;6.902;2023-05-25T04:04:18;101731.97;;;8.49;100.00
4836;BME280;66719;51.226;6.902;2023-05-25T04:06:44;101738.09;;;8.56;100.00
4836;BME280;66719;51.226;6.902;2023-05-25T04:09:14;101732.88;;;8.54;100.00
4836;BME280;66719;51.226;6.902;2023-05-25T04:11:40;101734.56;;;8.47;100.00
4836;BME280;66719;51.226;6.902;2023-05-25T04:14:07;101730.16;;;8.40;100.00
4836;BME280;66719;51.226;6.902;2023-05-25T04:16:33;101734.56;;;8.43;100.00
4836;BME280;66719;51.226;6.902;2023-05-25T04:19:00;101731.09;;;8.47;100.00
4836;BME280;66719;51.226;6.902;2023-05-25T04:21:27;101731.16;;;8.56;100.00
4836;BME280;66719;51.226;6.902;2023-05-25T04:23:54;101732.94;;;8.63;100.00
4836;BME280;66719;51.226;6.902;2023-05-25T04:26:20;101734.72;;;8.69;100.00
4836;BME280;66719;51.226;6.902;2023-05-25T04:28:47;101739.94;;;8.69;100.00
4836;BME280;66719;51.226;6.902;2023-05-25T04:31:13;101745.19;;;8.73;100.00
4836;BME280;66719;51.226;6.902;2023-05-25T04:33:40;101745.22;;;8.78;100.00
4836;BME280;66719;51.226;6.902;2023-05-25T04:36:07;101747.84;;;8.84;100.00
4836;BME280;66719;51.226;6.902;2023-05-25T04:38:36;101749.63;;;8.91;100.00
4836;BME280;66719;51.226;6.902;2023-05-25T04:41:03;101749.63;;;8.91;100.00
4836;BME280;66719;51.226;6.902;2023-05-25T04:43:31;101753.09;;;8.93;100.00
4836;BME280;66719;51.226;6.902;2023-05-25T04:46:04;101746.19;;;8.97;100.00
4836;BME280;66719;51.226;6.902;2023-05-25T04:48:33;101753.13;;;8.96;100.00
4836;BME280;66719;51.226;6.902;2023-05-25T04:51:00;101758.38;;;8.99;100.00
4836;BME280;66719;51.226;6.902;2023-05-25T04:53:29;101769.69;;;9.03;100.00
4836;BME280;66719;51.226;6.902;2023-05-25T04:55:57;101769.72;;;9.06;100.00
4836;BME280;66719;51.226;6.902;2023-05-25T04:58:24;101765.38;;;9.10;100.00
4836;BME280;66719;51.226;6.902;2023-05-25T05:00:50;101769.75;;;9.15;100.00
4836;BME280;66719;51.226;6.902;2023-05-25T05:03:18;101775.03;;;9.24;100.00
4836;BME280;66719;51.226;6.902;2023-05-25T05:05:44;101776.81;;;9.34;100.00
4836;BME280;66719;51.226;6.902;2023-05-25T05:08:11;101781.19;;;9.40;100.00
4836;BME280;66719;51.226;6.902;2023-05-25T05:10:38;101776.84;;;9.44;100.00
4836;BME280;66719;51.226;6.902;2023-05-25T05:13:04;101764.66;;;9.47;100.00
4836;BME280;66719;51.226;6.902;2023-05-25T05:15:31;101765.53;;;9.52;100.00
4836;BME280;66719;51.226;6.902;2023-05-25T05:17:57;101771.66;;;9.59;100.00
4836;BME280;66719;51.226;6.902;2023-05-25T05:20:24;101773.41;;;9.63;100.00
4836;BME280;66719;51.226;6.902;2023-05-25T05:22:51;101787.38;;;9.68;100.00
4836;BME280;66719;51.226;6.902;2023-05-25T05:25:18;101782.16;;;9.74;100.00
4836;BME280;66719;51.226;6.902;2023-05-25T05:27:45;101776.91;;;9.80;100.00
4836;BME280;66719;51.226;6.902;2023-05-25T05:30:11;101783.03;;;9.90;100.00
4836;BME280;66719;51.226;6.902;2023-05-25T05:32:38;101793.53;;;9.99;100.00
4836;BME280;66719;51.226;6.902;2023-05-25T05:35:05;101789.16;;;10.07;100.00
4836;BME280;66719;51.226;6.902;2023-05-25T05:37:31;101792.66;;;10.14;100.00
4836;BME280;66719;51.226;6.902;2023-05-25T05:39:58;101790.94;;;10.22;100.00
4836;BME280;66719;51.226;6.902;2023-05-25T05:42:24;101792.72;;;10.28;100.00
4836;BME280;66719;51.226;6.902;2023-05-25T05:44:51;101786.59;;;10.38;100.00
4836;BME280;66719;51.226;6.902;2023-05-25T05:47:17;101797.06;;;10.45;100.00
4836;BME280;66719;51.226;6.902;2023-05-25T05:49:44;101797.94;;;10.52;100.00
4836;BME280;66719;51.226;6.902;2023-05-25T05:52:11;101804.91;;;10.56;100.00
4836;BME280;66719;51.226;6.902;2023-05-25T05:54:37;101802.31;;;10.61;100.00
4836;BME280;66719;51.226;6.902;2023-05-25T05:57:04;101797.03;;;10.70;100.00
4836;BME280;66719;51.226;6.902;2023-05-25T05:59:33;101801.41;;;10.72;100.00
4836;BME280;66719;51.226;6.902;2023-05-25T06:01:59;101800.50;;;10.75;100.00
4836;BME280;66719;51.226;6.902;2023-05-25T06:04:26;101809.25;;;10.79;100.00
4836;BME280;66719;51.226;6.902;2023-05-25T06:06:54;101810.09;;;10.82;100.00
4836;BME280;66719;51.226;6.902;2023-05-25T06:09:21;101820.56;;;10.90;100.00
4836;BME280;66719;51.226;6.902;2023-05-25T06:11:47;101821.44;;;10.93;100.00
4836;BME280;66719;51.226;6.902;2023-05-25T06:14:14;101821.44;;;10.98;100.00
4836;BME280;66719;51.226;6.902;2023-05-25T06:16:40;101828.41;;;11.02;100.00
4836;BME280;66719;51.226;6.902;2023-05-25T06:19:09;101820.56;;;11.03;100.00
4836;BME280;66719;51.226;6.902;2023-05-25T06:21:36;101825.75;;;11.10;100.00
4836;BME280;66719;51.226;6.902;2023-05-25T06:24:03;101815.28;;;11.13;100.00
4836;BME280;66719;51.226;6.902;2023-05-25T06:26:30;101827.50;;;11.17;100.00
4836;BME280;66719;51.226;6.902;2023-05-25T06:28:57;101834.47;;;11.18;100.00
4836;BME280;66719;51.226;6.902;2023-05-25T06:31:23;101837.09;;;11.24;100.00
4836;BME280;66719;51.226;6.902;2023-05-25T06:33:50;101829.22;;;11.27;100.00
4836;BME280;66719;51.226;6.902;2023-05-25T06:36:17;101830.94;;;11.34;100.00
4836;BME280;66719;51.226;6.902;2023-05-25T06:38:43;101831.78;;;11.36;100.00
4836;BME280;66719;51.226;6.902;2023-05-25T06:41:10;101831.78;;;11.38;100.00
4836;BME280;66719;51.226;6.902;2023-05-25T06:43:40;101831.81;;;11.39;100.00
4836;BME280;66719;51.226;6.902;2023-05-25T06:46:09;101839.63;;;11.44;100.00
4836;BME280;66719;51.226;6.902;2023-05-25T06:48:38;101847.50;;;11.47;100.00
4836;BME280;66719;51.226;6.902;2023-05-25T06:51:09;101836.13;;;11.46;100.00
4836;BME280;66719;51.226;6.902;2023-05-25T06:53:36;101845.75;;;11.49;100.00
4836;BME280;66719;51.226;6.902;2023-05-25T06:56:03;101852.72;;;11.53;100.00
4836;BME280;66719;51.226;6.902;2023-05-25T06:58:30;101856.19;;;11.55;100.00
4836;BME280;66719;51.226;6.902;2023-05-25T07:00:57;101860.56;;;11.57;100.00
4836;BME280;66719;51.226;6.902;2023-05-25T07:03:25;101858.78;;;11.63;100.00
4836;BME280;66719;51.226;6.902;2023-05-25T07:05:52;101857.03;;;11.66;100.00
4836;BME280;66719;51.226;6.902;2023-05-25T07:08:19;101845.66;;;11.67;100.00
4836;BME280;66719;51.226;6.902;2023-05-25T07:10:45;101861.41;;;11.67;100.00
4836;BME280;66719;51.226;6.902;2023-05-25T07:13:15;101863.13;;;11.74;100.00
4836;BME280;66719;51.226;6.902;2023-05-25T07:15:41;101863.97;;;11.78;100.00
4836;BME280;66719;51.226;6.902;2023-05-25T07:18:08;101867.47;;;11.80;100.00
4836;BME280;66719;51.226;6.902;2023-05-25T07:20:41;101861.34;;;11.81;100.00
4836;BME280;66719;51.226;6.902;2023-05-25T07:23:10;101870.94;;;11.89;100.00
4836;BME280;66719;51.226;6.902;2023-05-25T07:25:38;101868.31;;;11.88;100.00
4836;BME280;66719;51.226;6.902;2023-05-25T07:28:04;101862.19;;;11.89;100.00
4836;BME280;66719;51.226;6.902;2023-05-25T07:30:31;101882.31;;;11.92;100.00
4836;BME280;66719;51.226;6.902;2023-05-25T07:32:58;101877.06;;;11.88;100.00
4836;BME280;66719;51.226;6.902;2023-05-25T07:35:25;101880.56;;;11.92;100.00
4836;BME280;66719;51.226;6.902;2023-05-25T07:37:59;101878.75;;;11.99;100.00
4836;BME280;66719;51.226;6.902;2023-05-25T07:40:26;101872.59;;;12.09;100.00
4836;BME280;66719;51.226;6.902;2023-05-25T07:42:53;101875.16;;;12.15;100.00
4836;BME280;66719;51.226;6.902;2023-05-25T07:45:19;101875.91;;;12.32;100.00
4836;BME280;66719;51.226;6.902;2023-05-25T07:47:46;101879.44;;;12.30;100.00
4836;BME280;66719;51.226;6.902;2023-05-25T07:50:13;101876.81;;;12.31;100.00
4836;BME280;66719;51.226;6.902;2023-05-25T07:52:40;101874.22;;;12.27;100.00
4836;BME280;66719;51.226;6.902;2023-05-25T07:55:08;101882.91;;;12.38;100.00
4836;BME280;66719;51.226;6.902;2023-05-25T07:57:35;101882.75;;;12.56;100.00
4836;BME280;66719;51.226;6.902;2023-05-25T08:00:02;101885.34;;;12.59;100.00
4836;BME280;66719;51.226;6.902;2023-05-25T08:02:31;101885.31;;;12.64;100.00
4836;BME280;66719;51.226;6.902;2023-05-25T08:04:58;101892.28;;;12.68;100.00
4836;BME280;66719;51.226;6.902;2023-05-25T08:07:29;101889.59;;;12.74;100.00
4836;BME280;66719;51.226;6.902;2023-05-25T08:09:56;101895.72;;;12.78;100.00
4836;BME280;66719;51.226;6.902;2023-05-25T08:12:22;101891.28;;;12.86;100.00
4836;BME280;66719;51.226;6.902;2023-05-25T08:15:09;101900.91;;;12.84;100.00
4836;BME280;66719;51.226;6.902;2023-05-25T08:17:35;101887.81;;;12.81;100.00
4836;BME280;66719;51.226;6.902;2023-05-25T08:20:02;101886.91;;;12.86;100.00
4836;BME280;66719;51.226;6.902;2023-05-25T08:22:31;101889.41;;;12.94;100.00
4836;BME280;66719;51.226;6.902;2023-05-25T08:24:58;101891.16;;;12.98;100.00
4836;BME280;66719;51.226;6.902;2023-05-25T08:27:24;101887.53;;;13.08;100.00
4836;BME280;66719;51.226;6.902;2023-05-25T08:29:51;101886.72;;;13.05;100.00
4836;BME280;66719;51.226;6.902;2023-05-25T08:32:17;101892.88;;;12.99;100.00
4836;BME280;66719;51.226;6.902;2023-05-25T08:34:44;101892.00;;;13.00;100.00
4836;BME280;66719;51.226;6.902;2023-05-25T08:37:10;101897.31;;;12.95;100.00
4836;BME280;66719;51.226;6.902;2023-05-25T08:39:37;101897.31;;;12.94;100.00
4836;BME280;66719;51.226;6.902;2023-05-25T08:42:04;101906.97;;;12.92;100.00
4836;BME280;66719;51.226;6.902;2023-05-25T08:44:34;101902.59;;;12.91;100.00
4836;BME280;66719;51.226;6.902;2023-05-25T08:47:05;101903.50;;;12.88;100.00
4836;BME280;66719;51.226;6.902;2023-05-25T08:49:36;101906.09;;;12.93;100.00
4836;BME280;66719;51.226;6.902;2023-05-25T08:52:04;101900.84;;;12.94;100.00
4836;BME280;66719;51.226;6.902;2023-05-25T08:54:36;101899.94;;;12.94;100.00
4836;BME280;66719;51.226;6.902;2023-05-25T08:57:16;101892.94;;;12.93;100.00
4836;BME280;66719;51.226;6.902;2023-05-25T09:00:02;101893.81;;;12.96;100.00
4836;BME280;66719;51.226;6.902;2023-05-25T09:05:01;101897.22;;;13.05;100.00
4836;BME280;66719;51.226;6.902;2023-05-25T09:07:28;101899.78;;;13.12;100.00
4836;BME280;66719;51.226;6.902;2023-05-25T09:09:56;101895.34;;;13.16;100.00
4836;BME280;66719;51.226;6.902;2023-05-25T09:12:23;101904.91;;;13.31;100.00
4836;BME280;66719;51.226;6.902;2023-05-25T09:14:52;101903.84;;;13.44;100.00
4836;BME280;66719;51.226;6.902;2023-05-25T09:17:19;101909.09;;;13.47;100.00
4836;BME280;66719;51.226;6.902;2023-05-25T09:19:46;101912.63;;;13.43;100.00
4836;BME280;66719;51.226;6.902;2023-05-25T09:22:13;101906.53;;;13.38;100.00
4836;BME280;66719;51.226;6.902;2023-05-25T09:24:42;101904.69;;;13.46;100.00
4836;BME280;66719;51.226;6.902;2023-05-25T09:27:11;101913.56;;;13.39;100.00
4836;BME280;66719;51.226;6.902;2023-05-25T09:29:38;101915.22;;;13.46;100.00
4836;BME280;66719;51.226;6.902;2023-05-25T09:32:05;101914.38;;;13.44;100.00
4836;BME280;66719;51.226;6.902;2023-05-25T09:34:34;101906.50;;;13.42;100.00
4836;BME280;66719;51.226;6.902;2023-05-25T09:37:11;101906.47;;;13.47;100.00
4836;BME280;66719;51.226;6.902;2023-05-25T09:39:40;101905.44;;;13.60;100.00
4836;BME280;66719;51.226;6.902;2023-05-25T09:42:07;101912.34;;;13.69;100.00
4836;BME280;66719;51.226;6.902;2023-05-25T09:44:34;101905.16;;;13.80;100.00
4836;BME280;66719;51.226;6.902;2023-05-25T09:47:01;101900.00;;;13.74;100.00
4836;BME280;66719;51.226;6.902;2023-05-25T09:49:27;101907.78;;;13.83;100.00
4836;BME280;66719;51.226;6.902;2023-05-25T09:51:54;101910.25;;;13.95;100.00
4836;BME280;66719;51.226;6.902;2023-05-25T09:54:22;101912.81;;;13.98;100.00
4836;BME280;66719;51.226;6.902;2023-05-25T09:56:48;101915.38;;;14.04;100.00
4836;BME280;66719;51.226;6.902;2023-05-25T09:59:15;101912.84;;;14.00;100.00
4836;BME280;66719;51.226;6.902;2023-05-25T10:01:41;101917.22;;;13.99;100.00
4836;BME280;66719;51.226;6.902;2023-05-25T10:04:09;101909.22;;;14.05;100.00
4836;BME280;66719;51.226;6.902;2023-05-25T10:06:37;101913.28;;;14.29;100.00
4836;BME280;66719;51.226;6.902;2023-05-25T10:09:05;101909.75;;;14.30;100.00
4836;BME280;66719;51.226;6.902;2023-05-25T10:11:35;101911.59;;;14.24;100.00
4836;BME280;66719;51.226;6.902;2023-05-25T10:14:06;101925.69;;;14.21;100.00
4836;BME280;66719;51.226;6.902;2023-05-25T10:16:33;101919.63;;;14.18;100.00
4836;BME280;66719;51.226;6.902;2023-05-25T10:19:05;101925.63;;;14.24;100.00
4836;BME280;66719;51.226;6.902;2023-05-25T10:21:33;101922.97;;;14.29;100.00
4836;BME280;66719;51.226;6.902;2023-05-25T10:24:20;101928.41;;;14.15;100.00
4836;BME280;66719;51.226;6.902;2023-05-25T10:26:53;101921.50;;;14.08;100.00
4836;BME280;66719;51.226;6.902;2023-05-25T10:29:20;101923.31;;;14.03;100.00
4836;BME280;66719;51.226;6.902;2023-05-25T10:31:50;101928.53;;;14.07;100.00
4836;BME280;66719;51.226;6.902;2023-05-25T10:34:18;101922.34;;;14.10;100.00
4836;BME280;66719;51.226;6.902;2023-05-25T10:36:45;101942.47;;;14.14;100.00
4836;BME280;66719;51.226;6.902;2023-05-25T10:39:14;101942.47;;;14.14;100.00
4836;BME280;66719;51.226;6.902;2023-05-25T10:41:41;101948.63;;;14.16;100.00
4836;BME280;66719;51.226;6.902;2023-05-25T10:44:09;101946.75;;;14.23;100.00
4836;BME280;66719;51.226;6.902;2023-05-25T10:46:36;101945.06;;;14.19;100.00
4836;BME280;66719;51.226;6.902;2023-05-25T10:49:03;101943.34;;;14.14;100.00
4836;BME280;66719;51.226;6.902;2023-05-25T10:51:56;101934.53;;;14.15;100.00
4836;BME280;66719;51.226;6.902;2023-05-25T10:54:27;101943.28;;;14.19;100.00
4836;BME280;66719;51.226;6.902;2023-05-25T10:57:11;101937.81;;;14.34;100.00
4836;BME280;66719;51.226;6.902;2023-05-25T10:59:40;101934.25;;;14.37;100.00
4836;BME280;66719;51.226;6.902;2023-05-25T11:02:07;101940.31;;;14.42;100.00
4836;BME280;66719;51.226;6.902;2023-05-25T11:04:34;101942.88;;;14.51;100.00
4836;BME280;66719;51.226;6.902;2023-05-25T11:07:04;101938.53;;;14.47;100.00
4836;BME280;66719;51.226;6.902;2023-05-25T11:09:40;101950.72;;;14.54;100.00
4836;BME280;66719;51.226;6.902;2023-05-25T11:12:19;101957.06;;;14.39;100.00
4836;BME280;66719;51.226;6.902;2023-05-25T11:15:12;101950.00;;;14.40;100.00
4836;BME280;66719;51.226;6.902;2023-05-25T11:17:56;101958.91;;;14.34;100.00
4836;BME280;66719;51.226;6.902;2023-05-25T11:20:26;101953.53;;;14.40;100.00
4836;BME280;66719;51.226;6.902;2023-05-25T11:22:53;101946.34;;;14.53;100.00
4836;BME280;66719;51.226;6.902;2023-05-25T11:25:36;101946.28;;;14.56;100.00
4836;BME280;66719;51.226;6.902;2023-05-25T11:28:04;101949.00;;;14.50;100.00
4836;BME280;66719;51.226;6.902;2023-05-25T11:30:32;101950.72;;;14.54;100.00
4836;BME280;66719;51.226;6.902;2023-05-25T11:33:02;101954.94;;;14.66;100.00
4836;BME280;66719;51.226;6.902;2023-05-25T11:35:30;101939.16;;;14.63;100.00
4836;BME280;66719;51.226;6.902;2023-05-25T11:37:59;101932.66;;;14.87;100.00
4836;BME280;66719;51.226;6.902;2023-05-25T11:40:29;101931.63;;;14.95;100.00
4836;BME280;66719;51.226;6.902;2023-05-25T11:42:59;101943.81;;;15.01;100.00
4836;BME280;66719;51.226;6.902;2023-05-25T11:45:28;101940.66;;;14.79;100.00
4836;BME280;66719;51.226;6.902;2023-05-25T11:47:56;101942.34;;;14.83;99.80
4836;BME280;66719;51.226;6.902;2023-05-25T11:50:22;101939.44;;;15.00;100.00
4836;BME280;66719;51.226;6.902;2023-05-25T11:52:49;101936.59;;;15.12;99.87
4836;BME280;66719;51.226;6.902;2023-05-25T11:55:16;101932.84;;;15.24;99.57
4836;BME280;66719;51.226;6.902;2023-05-25T11:57:42;101932.63;;;15.38;99.48
4836;BME280;66719;51.226;6.902;2023-05-25T12:00:09;101930.88;;;15.35;98.89
4836;BME280;66719;51.226;6.902;2023-05-25T12:02:37;101930.22;;;15.24;96.74
4836;BME280;66719;51.226;6.902;2023-05-25T12:05:05;101926.44;;;15.39;98.81
4836;BME280;66719;51.226;6.902;2023-05-25T12:07:42;101929.13;;;15.82;100.00
4836;BME280;66719;51.226;6.902;2023-05-25T12:10:10;101918.50;;;15.85;97.11
4836;BME280;66719;51.226;6.902;2023-05-25T12:12:48;101918.59;;;15.79;95.42
4836;BME280;66719;51.226;6.902;2023-05-25T12:15:20;101915.66;;;15.94;95.77
4836;BME280;66719;51.226;6.902;2023-05-25T12:17:47;101925.59;;;15.83;95.10
4836;BME280;66719;51.226;6.902;2023-05-25T12:20:15;101930.22;;;15.70;94.66
4836;BME280;66719;51.226;6.902;2023-05-25T12:22:44;101919.63;;;15.73;93.10
4836;BME280;66719;51.226;6.902;2023-05-25T12:25:12;101914.50;;;16.06;96.15
4836;BME280;66719;51.226;6.902;2023-05-25T12:27:39;101909.38;;;16.77;91.39
4836;BME280;66719;51.226;6.902;2023-05-25T12:30:07;101909.97;;;16.51;87.62
4836;BME280;66719;51.226;6.902;2023-05-25T12:32:52;101924.25;;;16.04;89.09
4836;BME280;66719;51.226;6.902;2023-05-25T12:35:19;101914.53;;;16.04;89.96
4836;BME280;66719;51.226;6.902;2023-05-25T12:37:45;101900.03;;;16.22;93.14
4836;BME280;66719;51.226;6.902;2023-05-25T12:40:20;101911.84;;;16.46;92.79
4836;BME280;66719;51.226;6.902;2023-05-25T12:42:56;101910.41;;;16.31;92.09
4836;BME280;66719;51.226;6.902;2023-05-25T12:45:23;101915.78;;;17.01;90.91
4836;BME280;66719;51.226;6.902;2023-05-25T12:47:50;101915.22;;;17.55;87.95
4836;BME280;66719;51.226;6.902;2023-05-25T12:50:16;101906.69;;;17.76;84.15
4836;BME280;66719;51.226;6.902;2023-05-25T12:52:46;101907.75;;;17.06;83.62
4836;BME280;66719;51.226;6.902;2023-05-25T12:55:29;101912.38;;;16.60;84.87
4836;BME280;66719;51.226;6.902;2023-05-25T12:58:02;101903.56;;;16.23;88.70
4836;BME280;66719;51.226;6.902;2023-05-25T13:02:57;101901.03;;;17.25;86.38
4836;BME280;66719;51.226;6.902;2023-05-25T13:05:26;101896.84;;;17.49;88.65
4836;BME280;66719;51.226;6.902;2023-05-25T13:07:54;101900.88;;;17.31;85.37
4836;BME280;66719;51.226;6.902;2023-05-25T13:10:21;101901.00;;;16.92;86.26
4836;BME280;66719;51.226;6.902;2023-05-25T13:12:49;101895.84;;;17.22;86.64